Time;durP1;ratioP1;P1;durP2;ratioP2;P2;SDS_P1;SDS_P2;PMS_P1;PMS_P2;Temp;Humidity;BMP_temperature;BMP_pressure;BME280_temperature;BME280_humidity;BME280_pressure;Samples;Min_cycle;Max_cycle;Signal;HPM_P1;HPM_P2
2024/04/16 00:00:13;;;;;;;853.87;809.20;;;4.40;99.90;;;;;;5526387;25;20460;-65
2024/04/16 00:02:42;;;;;;;854.83;810.07;;;4.50;99.90;;;;;;5511454;25;20335;-66
2024/04/16 00:05:10;;;;;;;841.43;799.93;;;4.60;99.90;;;;;;5523419;25;20540;-65
2024/04/16 00:07:36;;;;;;;829.63;791.63;;;4.70;99.90;;;;;;5518418;25;20472;-66
2024/04/16 00:10:04;;;;;;;792.97;760.60;;;4.70;99.90;;;;;;5525934;25;20952;-66
2024/04/16 00:12:30;;;;;;;790.83;759.63;;;4.80;99.90;;;;;;5489274;25;20237;-66
2024/04/16 00:14:58;;;;;;;758.40;730.70;;;4.90;99.90;;;;;;5515189;26;20752;-66
2024/04/16 00:17:27;;;;;;;733.17;707.83;;;5.00;99.90;;;;;;5504945;25;20271;-66
2024/04/16 00:19:58;;;;;;;704.63;681.43;;;5.00;99.90;;;;;;5512571;25;20454;-65
2024/04/16 00:22:24;;;;;;;716.33;692.83;;;5.10;99.90;;;;;;5492777;26;20486;-66
2024/04/16 00:24:52;;;;;;;739.70;714.57;;;5.00;99.90;;;;;;5515219;25;20550;-66
2024/04/16 00:27:18;;;;;;;708.73;685.07;;;5.00;99.90;;;;;;5507399;26;20332;-66
2024/04/16 00:29:46;;;;;;;649.23;629.47;;;5.00;99.90;;;;;;5526348;25;20460;-66
2024/04/16 00:32:12;;;;;;;667.67;647.07;;;5.00;99.90;;;;;;5525534;25;20244;-66
2024/04/16 00:34:41;;;;;;;652.27;632.27;;;5.00;99.90;;;;;;5517694;25;21020;-65
2024/04/16 00:37:09;;;;;;;674.57;653.27;;;5.00;99.90;;;;;;5488869;26;20245;-66
2024/04/16 00:39:38;;;;;;;638.57;619.60;;;5.00;99.90;;;;;;5495944;26;20464;-66
2024/04/16 00:42:04;;;;;;;610.57;592.70;;;5.00;99.90;;;;;;5510748;25;20572;-66
2024/04/16 00:44:33;;;;;;;651.40;631.67;;;5.00;99.90;;;;;;5488211;26;20913;-66
2024/04/16 00:46:59;;;;;;;659.17;639.20;;;5.00;99.90;;;;;;5516881;26;20909;-66
2024/04/16 00:49:28;;;;;;;685.63;664.03;;;5.00;99.90;;;;;;5505865;25;20529;-66
2024/04/16 00:51:54;;;;;;;658.37;638.30;;;5.00;99.90;;;;;;5499803;26;20460;-66
2024/04/16 00:54:25;;;;;;;671.67;650.67;;;5.00;99.90;;;;;;5521896;25;20465;-67
2024/04/16 00:56:51;;;;;;;667.20;646.73;;;4.90;99.90;;;;;;5514869;26;20949;-66
2024/04/16 00:59:19;;;;;;;689.70;667.80;;;4.90;99.90;;;;;;5510064;25;20464;-66
2024/04/16 01:01:45;;;;;;;737.03;712.10;;;4.80;99.90;;;;;;5509433;25;20527;-66
2024/04/16 01:04:14;;;;;;;756.27;729.87;;;4.80;99.90;;;;;;5523993;25;20819;-66
2024/04/16 01:06:40;;;;;;;760.80;734.33;;;4.80;99.90;;;;;;5496561;26;20331;-65
2024/04/16 01:09:10;;;;;;;800.60;770.33;;;4.70;99.90;;;;;;5524993;25;20566;-66
2024/04/16 01:11:39;;;;;;;809.70;779.33;;;4.70;99.90;;;;;;5510593;26;20876;-66
2024/04/16 01:14:07;;;;;;;827.30;795.23;;;4.70;99.90;;;;;;5509847;25;20520;-66
2024/04/16 01:16:33;;;;;;;859.67;823.07;;;4.70;99.90;;;;;;5503649;26;20593;-66
2024/04/16 01:19:02;;;;;;;843.93;810.03;;;4.80;99.90;;;;;;5501525;26;20464;-66
2024/04/16 01:21:28;;;;;;;868.43;829.67;;;4.80;99.90;;;;;;5520289;25;20279;-66
2024/04/16 01:23:59;;;;;;;889.40;847.20;;;4.60;99.90;;;;;;5513208;25;20595;-65
2024/04/16 01:26:25;;;;;;;897.53;852.43;;;4.60;99.90;;;;;;5507689;26;20291;-66
2024/04/16 01:28:53;;;;;;;888.77;846.37;;;4.60;99.90;;;;;;5513621;25;20580;-66
2024/04/16 01:31:19;;;;;;;916.73;869.10;;;4.60;99.90;;;;;;5520611;26;20531;-66
2024/04/16 01:33:48;;;;;;;917.60;868.83;;;4.50;99.90;;;;;;5499949;25;20466;-66
2024/04/16 01:36:14;;;;;;;911.87;864.77;;;4.50;99.90;;;;;;5487591;26;20324;-66
2024/04/16 01:38:42;;;;;;;912.53;865.90;;;4.60;99.90;;;;;;5487902;26;20461;-66
2024/04/16 01:41:11;;;;;;;912.20;866.00;;;4.60;99.90;;;;;;5502873;26;21019;-65
2024/04/16 01:43:40;;;;;;;891.10;850.00;;;4.60;99.90;;;;;;5509228;25;20527;-66
2024/04/16 01:46:06;;;;;;;896.10;853.67;;;4.70;99.90;;;;;;5524615;25;20532;-66
2024/04/16 01:48:34;;;;;;;900.60;857.30;;;4.60;99.90;;;;;;5524408;25;20805;-66
2024/04/16 01:51:00;;;;;;;901.67;858.00;;;4.60;99.90;;;;;;5523878;25;20323;-66
2024/04/16 01:53:28;;;;;;;893.60;851.40;;;4.60;99.90;;;;;;5504373;25;21004;-66
2024/04/16 01:55:54;;;;;;;890.93;849.57;;;4.60;99.90;;;;;;5487602;26;20240;-66
2024/04/16 01:58:25;;;;;;;876.53;838.60;;;4.60;99.90;;;;;;5506118;26;20586;-66
2024/04/16 02:00:58;;;;;;;869.80;832.27;;;4.60;99.90;;;;;;5524151;25;20235;-66
2024/04/16 02:03:26;;;;;;;877.00;837.30;;;4.70;99.90;;;;;;5524301;25;20509;-65
2024/04/16 02:05:53;;;;;;;871.93;834.67;;;4.60;99.90;;;;;;5497746;25;20885;-66
2024/04/16 02:08:22;;;;;;;873.37;835.87;;;4.60;99.90;;;;;;5489941;26;20506;-66
2024/04/16 02:10:51;;;;;;;875.97;838.03;;;4.50;99.90;;;;;;5523849;25;20541;-66
2024/04/16 02:13:20;;;;;;;848.93;814.73;;;4.60;99.90;;;;;;5524536;25;20565;-66
2024/04/16 02:15:48;;;;;;;836.57;804.27;;;4.70;99.90;;;;;;5524155;25;20460;-66
2024/04/16 02:18:17;;;;;;;832.63;800.73;;;4.70;99.90;;;;;;5522244;25;21059;-66
2024/04/16 02:20:43;;;;;;;816.43;786.23;;;4.80;99.90;;;;;;5495502;26;20472;-65
2024/04/16 02:23:11;;;;;;;789.67;761.67;;;4.80;99.90;;;;;;5508566;25;20533;-65
2024/04/16 02:25:37;;;;;;;803.97;774.77;;;4.80;99.90;;;;;;5487458;26;20506;-66
2024/04/16 02:28:06;;;;;;;782.20;754.83;;;4.70;99.90;;;;;;5487101;26;21020;-65
2024/04/16 02:30:33;;;;;;;766.83;740.57;;;4.70;99.90;;;;;;5507856;26;20283;-66
2024/04/16 02:33:04;;;;;;;790.40;762.17;;;4.60;99.90;;;;;;5523728;25;20461;-66
2024/04/16 02:35:32;;;;;;;809.57;780.37;;;4.70;99.90;;;;;;5502382;25;20950;-66
2024/04/16 02:38:00;;;;;;;836.73;803.53;;;4.60;99.90;;;;;;5514894;26;20472;-66
2024/04/16 02:40:26;;;;;;;840.63;807.97;;;4.60;99.90;;;;;;5523460;25;20465;-67
2024/04/16 02:42:54;;;;;;;822.87;792.13;;;4.60;99.90;;;;;;5524937;25;20586;-66
2024/04/16 02:45:21;;;;;;;797.83;769.37;;;4.70;99.90;;;;;;5527423;25;20330;-66
2024/04/16 02:47:50;;;;;;;799.97;770.97;;;4.70;99.90;;;;;;5527473;25;20459;-67
2024/04/16 02:50:18;;;;;;;814.67;784.40;;;4.70;99.90;;;;;;5527186;25;20555;-66
2024/04/16 02:52:47;;;;;;;817.00;786.63;;;4.80;99.90;;;;;;5526743;25;21038;-66
2024/04/16 02:55:14;;;;;;;801.70;772.40;;;4.90;99.90;;;;;;5510378;25;20579;-66
2024/04/16 02:57:43;;;;;;;777.53;749.70;;;5.10;99.90;;;;;;5498711;26;20516;-66
2024/04/16 03:00:09;;;;;;;767.70;741.40;;;5.20;99.90;;;;;;5527162;25;20480;-66
2024/04/16 03:02:38;;;;;;;710.17;686.97;;;5.30;99.90;;;;;;5504090;25;20469;-66
2024/04/16 03:05:04;;;;;;;651.27;630.97;;;5.40;99.90;;;;;;5519829;26;20577;-66
2024/04/16 03:07:35;;;;;;;685.10;664.13;;;5.50;99.90;;;;;;5527273;25;20577;-66
2024/04/16 03:10:01;;;;;;;567.17;550.40;;;5.50;99.90;;;;;;5527218;25;20460;-65
2024/04/16 03:12:29;;;;;;;623.50;604.23;;;5.30;99.90;;;;;;5506134;25;20508;-65
2024/04/16 03:14:55;;;;;;;682.33;658.97;;;5.10;99.90;;;;;;5517234;26;20232;-64
2024/04/16 03:17:23;;;;;;;728.20;701.70;;;5.00;99.90;;;;;;5531722;25;20480;-66
2024/04/16 03:19:49;;;;;;;778.90;746.63;;;5.10;99.90;;;;;;5527116;25;20595;-64
2024/04/16 03:22:18;;;;;;;792.97;758.07;;;5.10;99.90;;;;;;5493873;25;20458;-64
2024/04/16 03:24:50;;;;;;;859.57;813.30;;;5.00;99.90;;;;;;5490061;26;20450;-65
2024/04/16 03:27:19;;;;;;;895.97;844.37;;;5.00;99.90;;;;;;5489872;26;20819;-64
2024/04/16 03:29:44;;;;;;;869.67;821.17;;;5.00;99.90;;;;;;5499239;26;20476;-65
2024/04/16 03:32:13;;;;;;;892.97;839.97;;;5.00;99.90;;;;;;5526184;25;20922;-64
2024/04/16 03:34:39;;;;;;;889.07;836.67;;;5.00;99.90;;;;;;5526411;25;20460;-65
2024/04/16 03:37:08;;;;;;;874.70;824.63;;;5.00;99.90;;;;;;5526478;25;20456;-64
2024/04/16 03:39:36;;;;;;;898.97;845.17;;;5.00;99.90;;;;;;5511597;26;20730;-65
2024/04/16 03:42:07;;;;;;;914.63;858.33;;;5.00;99.90;;;;;;5525653;25;20468;-65
2024/04/16 03:44:33;;;;;;;920.63;863.23;;;5.00;99.90;;;;;;5511154;26;20464;-65
2024/04/16 03:47:02;;;;;;;947.73;887.57;;;5.00;99.90;;;;;;5526405;25;20457;-65
2024/04/16 03:49:27;;;;;;;976.37;913.57;;;5.00;99.90;;;;;;5526417;25;20315;-65
2024/04/16 03:51:56;;;;;;;961.03;900.93;;;5.10;99.90;;;;;;5499701;25;20579;-65
2024/04/16 03:54:22;;;;;;;968.73;907.30;;;5.10;99.90;;;;;;5523216;26;20343;-65
2024/04/16 03:56:50;;;;;;;936.20;878.17;;;5.10;99.90;;;;;;5526190;25;20476;-65
2024/04/16 03:59:37;;;;;;;921.53;866.13;;;5.10;99.90;;;;;;5526461;25;20259;-64
2024/04/16 04:02:06;;;;;;;957.10;896.10;;;5.00;99.90;;;;;;5496718;25;20529;-65
2024/04/16 04:04:32;;;;;;;963.93;901.43;;;4.90;99.90;;;;;;5489173;26;21023;-65
2024/04/16 04:07:00;;;;;;;955.10;893.37;;;4.80;99.90;;;;;;5489258;26;20575;-65
2024/04/16 04:09:26;;;;;;;956.37;893.27;;;4.70;99.90;;;;;;5489304;26;20857;-65
2024/04/16 04:11:54;;;;;;;990.73;922.17;;;4.70;99.90;;;;;;5488936;26;20478;-64
2024/04/16 04:14:23;;;;;;;1075.57;999.07;;;4.60;99.90;;;;;;5489412;26;20717;-65
2024/04/16 04:16:52;;;;;;;1116.20;999.90;;;4.50;99.90;;;;;;5489245;26;20507;-65
2024/04/16 04:19:18;;;;;;;1128.67;999.90;;;4.60;99.90;;;;;;5491739;26;20458;-64
2024/04/16 04:21:46;;;;;;;1098.67;999.90;;;4.70;99.90;;;;;;5525497;25;20554;-65
2024/04/16 04:24:17;;;;;;;1157.13;999.90;;;4.80;99.90;;;;;;5526120;25;20480;-65
2024/04/16 04:26:45;;;;;;;1107.70;999.90;;;4.90;99.90;;;;;;5525963;25;20854;-65
2024/04/16 04:29:11;;;;;;;1129.57;999.90;;;5.00;99.90;;;;;;5509809;25;20938;-64
2024/04/16 04:31:42;;;;;;;1149.17;999.90;;;5.00;99.90;;;;;;5511521;26;21078;-64
2024/04/16 04:34:08;;;;;;;1157.83;999.90;;;5.00;99.90;;;;;;5525667;25;20570;-64
2024/04/16 04:36:37;;;;;;;1142.63;999.90;;;5.00;99.90;;;;;;5525853;25;20468;-64
2024/04/16 04:39:04;;;;;;;1168.13;999.90;;;5.00;99.90;;;;;;5525745;25;20516;-64
2024/04/16 04:41:33;;;;;;;1149.73;999.90;;;5.00;99.90;;;;;;5519213;25;21017;-64
2024/04/16 04:43:59;;;;;;;1144.00;999.90;;;5.00;99.90;;;;;;5488449;26;20474;-64
2024/04/16 04:46:27;;;;;;;1139.87;999.90;;;5.00;99.90;;;;;;5523693;26;20460;-64
2024/04/16 04:48:56;;;;;;;1122.67;999.90;;;5.00;99.90;;;;;;5525546;25;20746;-64
2024/04/16 04:51:25;;;;;;;1142.90;999.90;;;5.10;99.90;;;;;;5505818;25;21052;-64
2024/04/16 04:53:51;;;;;;;1134.03;999.90;;;5.10;99.90;;;;;;5488479;26;21135;-64
2024/04/16 04:56:19;;;;;;;1135.00;999.90;;;5.10;99.90;;;;;;5519469;26;20466;-64
2024/04/16 04:58:45;;;;;;;1120.77;999.90;;;5.10;99.90;;;;;;5488486;26;20225;-64
2024/04/16 05:01:14;;;;;;;1140.63;999.90;;;5.10;99.90;;;;;;5487616;26;20518;-64
2024/04/16 05:03:39;;;;;;;1126.13;999.90;;;5.20;99.90;;;;;;5511711;26;20347;-65
2024/04/16 05:06:10;;;;;;;1118.43;999.90;;;5.10;99.90;;;;;;5494030;25;20465;-64
2024/04/16 05:08:36;;;;;;;1124.17;999.90;;;5.10;99.90;;;;;;5509349;26;20263;-64
2024/04/16 05:11:05;;;;;;;1098.73;999.90;;;5.00;99.90;;;;;;5524424;25;20872;-65
2024/04/16 05:13:31;;;;;;;1124.53;999.90;;;5.10;99.90;;;;;;5520845;25;20231;-64
2024/04/16 05:16:01;;;;;;;1121.43;999.90;;;5.10;99.90;;;;;;5523471;25;20604;-64
2024/04/16 05:18:27;;;;;;;1116.60;999.90;;;5.20;99.90;;;;;;5489553;25;20253;-64
2024/04/16 05:20:56;;;;;;;1109.70;999.90;;;5.30;99.90;;;;;;5499341;26;21024;-64
2024/04/16 05:23:25;;;;;;;1098.33;999.90;;;5.50;99.90;;;;;;5524902;25;21070;-65
2024/04/16 05:26:02;;;;;;;1061.77;989.77;;;5.60;99.90;;;;;;5513885;25;20461;-64
2024/04/16 05:28:28;;;;;;;1050.07;979.50;;;5.70;99.90;;;;;;5523726;26;20472;-65
2024/04/16 05:30:57;;;;;;;992.33;927.17;;;5.70;99.90;;;;;;5512720;25;20528;-64
2024/04/16 05:33:23;;;;;;;940.43;879.13;;;5.70;99.90;;;;;;5507114;26;20468;-65
2024/04/16 05:35:51;;;;;;;925.57;865.40;;;5.80;99.90;;;;;;5524877;25;20793;-65
2024/04/16 05:38:17;;;;;;;905.07;847.33;;;5.90;99.90;;;;;;5524732;25;20569;-65
2024/04/16 05:40:49;;;;;;;912.20;853.40;;;5.90;99.90;;;;;;5510604;25;20457;-65
2024/04/16 05:43:14;;;;;;;882.93;829.13;;;5.90;99.90;;;;;;5495127;26;20512;-64
2024/04/16 05:45:43;;;;;;;869.20;817.47;;;5.90;99.90;;;;;;5524379;25;20528;-64
2024/04/16 05:48:09;;;;;;;862.70;814.40;;;5.90;99.90;;;;;;5524231;25;20231;-64
2024/04/16 05:50:37;;;;;;;855.53;808.60;;;6.00;99.90;;;;;;5523808;25;20566;-65
2024/04/16 05:53:03;;;;;;;849.83;804.70;;;6.00;99.90;;;;;;5508550;25;20741;-64
2024/04/16 05:55:32;;;;;;;849.90;804.43;;;6.00;99.90;;;;;;5524036;25;20460;-64
2024/04/16 05:58:00;;;;;;;850.70;804.87;;;6.00;99.90;;;;;;5496445;25;20465;-65
2024/04/16 06:00:29;;;;;;;863.23;815.77;;;6.10;99.90;;;;;;5487420;26;20548;-65
2024/04/16 06:02:54;;;;;;;850.97;805.67;;;6.00;99.90;;;;;;5498890;26;20460;-65
2024/04/16 06:05:23;;;;;;;849.30;803.60;;;6.10;99.90;;;;;;5524176;25;20560;-65
2024/04/16 06:07:49;;;;;;;852.50;806.80;;;6.10;99.90;;;;;;5513564;25;20350;-65
2024/04/16 06:10:17;;;;;;;870.03;822.30;;;6.20;99.90;;;;;;5504153;26;21014;-64
2024/04/16 06:12:43;;;;;;;861.30;814.30;;;6.20;99.90;;;;;;5523640;25;20287;-65
2024/04/16 06:15:14;;;;;;;851.27;806.07;;;6.20;99.90;;;;;;5508504;25;20470;-65
2024/04/16 06:17:40;;;;;;;875.07;826.17;;;6.20;99.90;;;;;;5498854;26;20235;-64
2024/04/16 06:20:10;;;;;;;889.47;838.07;;;6.20;99.90;;;;;;5527787;25;20569;-64
2024/04/16 06:22:36;;;;;;;854.27;807.00;;;6.20;99.90;;;;;;5512925;26;20460;-64
2024/04/16 06:25:04;;;;;;;860.57;810.37;;;6.00;99.90;;;;;;5522154;25;20520;-64
2024/04/16 06:27:30;;;;;;;911.87;858.67;;;5.90;99.90;;;;;;5526338;25;20596;-64
2024/04/16 06:29:58;;;;;;;905.73;850.43;;;5.80;99.90;;;;;;5526461;25;20460;-64
2024/04/16 06:32:27;;;;;;;948.13;887.03;;;5.70;99.90;;;;;;5510908;25;20325;-64
2024/04/16 06:34:55;;;;;;;1018.10;948.43;;;5.70;99.90;;;;;;5526557;25;20457;-64
2024/04/16 06:37:21;;;;;;;1025.70;955.03;;;5.70;99.90;;;;;;5511117;25;20557;-64
2024/04/16 06:39:49;;;;;;;1049.63;978.33;;;5.60;99.90;;;;;;5493439;26;21056;-64
2024/04/16 06:42:15;;;;;;;1044.17;970.47;;;5.60;99.90;;;;;;5525309;26;20308;-64
2024/04/16 06:44:43;;;;;;;1050.03;976.27;;;5.60;99.90;;;;;;5527234;25;21007;-64
2024/04/16 06:47:09;;;;;;;1073.33;996.47;;;5.60;99.90;;;;;;5511185;25;20846;-64
2024/04/16 06:49:40;;;;;;;1079.83;999.90;;;5.60;99.90;;;;;;5519672;25;20466;-63
2024/04/16 06:52:08;;;;;;;1056.93;980.83;;;5.60;99.90;;;;;;5490045;26;20229;-65
2024/04/16 06:54:36;;;;;;;1070.87;995.63;;;5.50;99.90;;;;;;5496001;26;20533;-65
2024/04/16 06:57:02;;;;;;;1107.17;999.90;;;5.50;99.90;;;;;;5499323;26;20472;-65
2024/04/16 06:59:31;;;;;;;1097.47;999.90;;;5.60;99.90;;;;;;5525916;25;20958;-64
2024/04/16 07:01:56;;;;;;;1082.47;999.90;;;5.50;99.90;;;;;;5525683;25;20496;-65
2024/04/16 07:04:25;;;;;;;1042.93;975.93;;;5.40;99.90;;;;;;5526408;25;20515;-64
2024/04/16 07:06:54;;;;;;;929.63;874.60;;;5.40;99.90;;;;;;5527350;25;20332;-65
2024/04/16 07:09:22;;;;;;;881.67;829.47;;;5.40;99.90;;;;;;5529964;25;20460;-66
2024/04/16 07:11:49;;;;;;;921.67;866.77;;;5.40;99.90;;;;;;5520362;25;20715;-66
2024/04/16 07:14:17;;;;;;;924.23;866.93;;;5.40;99.90;;;;;;5489424;26;20514;-65
2024/04/16 07:16:44;;;;;;;970.73;910.17;;;5.40;99.90;;;;;;5488543;26;20570;-65
2024/04/16 07:19:12;;;;;;;918.63;863.83;;;5.50;99.90;;;;;;5519534;26;20456;-65
2024/04/16 07:21:39;;;;;;;938.67;880.60;;;5.40;99.90;;;;;;5522741;26;20566;-65
2024/04/16 07:24:10;;;;;;;929.97;873.77;;;5.50;99.90;;;;;;5510798;25;20486;-63
2024/04/16 07:26:36;;;;;;;933.93;877.60;;;5.50;99.90;;;;;;5504535;26;20513;-65
2024/04/16 07:29:04;;;;;;;956.23;898.33;;;5.50;99.90;;;;;;5517984;26;20449;-65
2024/04/16 07:31:33;;;;;;;944.90;886.23;;;5.50;99.90;;;;;;5524525;25;20599;-64
2024/04/16 07:33:58;;;;;;;907.00;850.83;;;5.60;99.90;;;;;;5526109;25;20524;-65
2024/04/16 07:36:27;;;;;;;930.27;870.80;;;5.60;99.90;;;;;;5508810;25;20564;-65
2024/04/16 07:38:53;;;;;;;911.40;852.57;;;5.60;99.90;;;;;;5514041;25;20232;-66
2024/04/16 07:41:24;;;;;;;917.50;858.30;;;5.70;99.90;;;;;;5518457;26;20877;-65
2024/04/16 07:43:50;;;;;;;942.07;881.10;;;5.70;99.90;;;;;;5499190;26;20287;-65
2024/04/16 07:46:18;;;;;;;959.67;894.47;;;5.80;99.90;;;;;;5508566;25;20549;-66
2024/04/16 07:48:44;;;;;;;926.47;869.10;;;5.80;99.90;;;;;;5488991;26;20574;-65
2024/04/16 07:51:12;;;;;;;946.23;886.53;;;6.00;99.90;;;;;;5518711;26;21015;-65
2024/04/16 07:53:38;;;;;;;959.63;898.87;;;6.10;99.90;;;;;;5509951;25;20585;-66
2024/04/16 07:56:07;;;;;;;965.43;905.03;;;6.20;99.90;;;;;;5525294;25;20468;-65
2024/04/16 07:58:35;;;;;;;971.53;913.27;;;6.30;99.90;;;;;;5509817;26;20336;-66
2024/04/16 08:01:04;;;;;;;994.73;933.83;;;6.30;99.90;;;;;;5495857;25;20922;-66
2024/04/16 08:03:30;;;;;;;989.67;929.90;;;6.40;99.90;;;;;;5519706;26;20932;-66
2024/04/16 08:05:58;;;;;;;939.73;885.27;;;6.50;99.90;;;;;;5525378;25;20574;-66
2024/04/16 08:08:24;;;;;;;990.47;931.30;;;6.60;99.90;;;;;;5525243;25;20524;-66
2024/04/16 08:10:53;;;;;;;993.50;933.67;;;6.60;99.90;;;;;;5513401;25;20580;-66
2024/04/16 08:13:18;;;;;;;967.53;909.60;;;6.70;99.90;;;;;;5518811;26;20243;-67
2024/04/16 08:15:49;;;;;;;963.37;907.17;;;6.80;99.90;;;;;;5488129;26;21088;-67
2024/04/16 08:18:16;;;;;;;970.00;913.03;;;6.90;99.90;;;;;;5505521;26;20341;-66
2024/04/16 08:20:44;;;;;;;958.77;901.87;;;6.90;99.90;;;;;;5515948;25;20457;-66
2024/04/16 08:23:10;;;;;;;985.20;926.33;;;6.90;99.90;;;;;;5519021;26;20514;-65
2024/04/16 08:25:39;;;;;;;982.80;923.50;;;7.00;99.90;;;;;;5525233;25;20456;-67
2024/04/16 08:28:05;;;;;;;944.23;888.43;;;7.00;99.90;;;;;;5524831;25;20286;-66
2024/04/16 08:30:33;;;;;;;953.67;895.10;;;7.00;99.90;;;;;;5524769;25;20468;-64
2024/04/16 08:33:02;;;;;;;812.93;765.13;;;7.10;99.90;;;;;;5511851;25;20518;-65
2024/04/16 08:35:31;;;;;;;851.77;802.30;;;7.00;99.90;;;;;;5508214;26;20941;-66
2024/04/16 08:37:57;;;;;;;822.83;775.27;;;7.10;99.90;;;;;;5524490;25;20456;-66
2024/04/16 08:40:26;;;;;;;872.43;820.93;;;7.20;99.90;;;;;;5504011;25;20885;-66
2024/04/16 08:42:52;;;;;;;847.37;798.53;;;7.40;99.90;;;;;;5498129;26;20327;-66
2024/04/16 08:45:23;;;;;;;782.53;738.17;;;7.60;99.90;;;;;;5507244;25;20462;-65
2024/04/16 08:47:51;;;;;;;796.60;751.13;;;7.70;99.90;;;;;;5498468;26;20505;-65
2024/04/16 08:50:23;;;;;;;776.23;734.33;;;7.80;99.90;;;;;;5506686;25;20522;-67
2024/04/16 08:52:50;;;;;;;777.93;737.53;;;8.00;99.90;;;;;;5497351;26;21115;-66
2024/04/16 08:55:21;;;;;;;838.07;791.37;;;8.00;99.90;;;;;;5524435;25;20464;-66
2024/04/16 08:57:48;;;;;;;829.63;783.70;;;8.20;99.90;;;;;;5524707;25;20599;-66
2024/04/16 09:00:18;;;;;;;848.97;802.10;;;8.20;99.90;;;;;;5491989;25;20553;-66
2024/04/16 09:02:44;;;;;;;846.07;799.87;;;8.30;99.90;;;;;;5486797;26;20589;-66
2024/04/16 09:05:13;;;;;;;866.53;817.43;;;8.30;99.90;;;;;;5518135;26;20708;-66
2024/04/16 09:07:41;;;;;;;867.13;818.40;;;8.50;99.90;;;;;;5524225;25;20938;-67
2024/04/16 09:10:15;;;;;;;855.93;808.53;;;8.50;99.90;;;;;;5524200;25;20953;-66
2024/04/16 09:12:43;;;;;;;838.87;797.10;;;8.50;99.90;;;;;;5502188;26;21059;-66
2024/04/16 09:15:12;;;;;;;865.00;817.70;;;8.50;99.90;;;;;;5518422;26;20453;-66
2024/04/16 09:17:46;;;;;;;855.70;809.70;;;8.60;99.90;;;;;;5524025;25;20472;-67
2024/04/16 09:20:16;;;;;;;857.27;809.47;;;8.90;99.90;;;;;;5507934;25;20470;-67
2024/04/16 09:22:46;;;;;;;839.27;795.50;;;9.20;99.90;;;;;;5510779;26;20460;-67
2024/04/16 09:25:15;;;;;;;744.20;715.60;;;9.20;99.90;;;;;;5523918;25;20592;-67
2024/04/16 09:27:40;;;;;;;697.20;673.23;;;9.00;99.90;;;;;;5524501;25;20584;-67
2024/04/16 09:30:10;;;;;;;623.30;603.50;;;8.90;99.90;;;;;;5493592;25;21081;-66
2024/04/16 09:32:36;;;;;;;600.47;581.10;;;8.70;99.90;;;;;;5509209;26;20262;-67
2024/04/16 09:35:05;;;;;;;570.43;552.60;;;8.70;99.90;;;;;;5510066;25;20465;-67
2024/04/16 09:37:31;;;;;;;650.37;629.23;;;8.80;99.90;;;;;;5507774;26;20464;-67
2024/04/16 09:40:02;;;;;;;596.20;578.20;;;8.90;99.90;;;;;;5511526;25;20466;-67
2024/04/16 09:42:30;;;;;;;620.37;601.47;;;8.90;99.90;;;;;;5486270;26;20323;-67
2024/04/16 09:45:00;;;;;;;649.80;629.20;;;8.90;99.90;;;;;;5514738;26;20461;-67
2024/04/16 09:47:26;;;;;;;628.53;608.30;;;9.30;99.90;;;;;;5523705;25;20795;-67
2024/04/16 09:49:56;;;;;;;512.40;496.63;;;9.50;99.90;;;;;;5523472;25;20452;-67
2024/04/16 09:52:22;;;;;;;521.87;505.67;;;9.50;99.90;;;;;;5511324;25;20466;-68
2024/04/16 09:54:52;;;;;;;522.30;505.67;;;9.60;99.90;;;;;;5504761;26;20472;-67
2024/04/16 09:57:23;;;;;;;225.80;218.70;;;9.60;99.90;;;;;;5531417;25;20593;-67
2024/04/16 09:59:52;;;;;;;461.10;446.37;;;9.70;99.90;;;;;;5531577;25;20452;-66
2024/04/16 10:02:20;;;;;;;155.83;150.43;;;10.30;99.90;;;;;;5531298;25;20516;-68
2024/04/16 10:04:50;;;;;;;107.87;103.80;;;10.70;98.30;;;;;;5531161;25;20464;-68
2024/04/16 10:07:17;;;;;;;45.23;42.93;;;11.00;98.00;;;;;;5531187;25;20568;-68
2024/04/16 10:09:45;;;;;;;34.07;32.60;;;11.10;91.50;;;;;;5522308;25;20521;-68
2024/04/16 10:12:11;;;;;;;39.70;36.93;;;11.00;91.40;;;;;;5525319;26;20519;-67
2024/04/16 10:14:43;;;;;;;10.47;6.40;;;11.10;94.00;;;;;;5531340;25;20557;-67
2024/04/16 10:17:12;;;;;;;9.27;8.30;;;11.00;91.40;;;;;;5531347;25;20449;-67
2024/04/16 10:19:40;;;;;;;8.77;6.17;;;11.20;91.50;;;;;;5531199;25;20503;-67
2024/04/16 10:22:11;;;;;;;13.60;12.30;;;11.20;91.40;;;;;;5515171;25;20465;-67
2024/04/16 10:24:39;;;;;;;9.20;8.30;;;11.50;91.60;;;;;;5517035;26;20572;-67
2024/04/16 10:27:09;;;;;;;9.00;6.60;;;11.20;85.90;;;;;;5531294;25;21070;-68
2024/04/16 10:29:42;;;;;;;7.27;5.77;;;10.90;91.70;;;;;;5516490;26;20876;-67
2024/04/16 10:32:09;;;;;;;5.07;3.10;;;10.60;91.00;;;;;;5531081;25;20464;-67
2024/04/16 10:34:43;;;;;;;6.63;3.70;;;10.40;91.00;;;;;;5530940;25;21066;-67
2024/04/16 10:37:09;;;;;;;7.60;2.93;;;10.30;91.00;;;;;;5516900;25;20552;-66
2024/04/16 10:39:38;;;;;;;12.60;3.87;;;10.30;91.00;;;;;;5531343;25;20558;-67
2024/04/16 10:42:04;;;;;;;8.70;4.33;;;10.30;91.10;;;;;;5530197;25;20345;-67
2024/04/16 10:44:35;;;;;;;8.20;4.90;;;10.30;91.10;;;;;;5524935;25;20462;-67
2024/04/16 10:47:05;;;;;;;14.73;6.67;;;10.20;91.00;;;;;;5506951;26;20573;-67
2024/04/16 10:49:34;;;;;;;9.10;4.90;;;10.10;91.50;;;;;;5530928;25;20809;-66
2024/04/16 10:52:09;;;;;;;16.17;6.00;;;10.10;91.00;;;;;;5530024;25;20475;-67
2024/04/16 10:54:37;;;;;;;6.77;4.20;;;10.10;91.20;;;;;;5530440;25;20475;-67
2024/04/16 10:57:04;;;;;;;6.17;4.67;;;10.10;91.00;;;;;;5530556;25;20512;-65
2024/04/16 10:59:33;;;;;;;8.13;4.73;;;10.10;91.00;;;;;;5530704;25;21131;-66
2024/04/16 11:01:59;;;;;;;11.33;6.87;;;10.00;92.80;;;;;;5529821;25;20467;-68
2024/04/16 11:04:31;;;;;;;36.53;34.67;;;9.60;99.90;;;;;;5526396;25;20589;-67
2024/04/16 11:06:57;;;;;;;25.90;24.03;;;8.40;99.90;;;;;;5527240;25;20259;-66
2024/04/16 11:09:26;;;;;;;37.50;35.93;;;7.60;99.90;;;;;;5508077;25;20469;-66
2024/04/16 11:11:52;;;;;;;63.97;61.47;;;6.70;99.90;;;;;;5489465;26;20220;-66
2024/04/16 11:14:20;;;;;;;55.88;53.75;;;7.40;99.90;;;;;;5505707;26;20416;-66
2024/04/16 11:16:47;;;;;;;69.60;67.00;;;7.80;99.90;;;;;;5527102;25;20228;-66
2024/04/16 11:19:16;;;;;;;72.60;69.90;;;7.80;99.90;;;;;;5526937;25;20464;-65
2024/04/16 11:21:46;;;;;;;68.40;65.83;;;7.50;99.90;;;;;;5511173;25;20508;-66
2024/04/16 11:24:15;;;;;;;58.20;56.00;;;7.40;99.90;;;;;;5526660;25;20810;-66
2024/04/16 11:26:40;;;;;;;70.60;68.00;;;7.90;99.90;;;;;;5526578;25;21062;-66
2024/04/16 11:29:09;;;;;;;83.43;80.43;;;7.80;99.90;;;;;;5511475;25;20581;-66
2024/04/16 11:31:35;;;;;;;83.10;80.20;;;7.70;99.90;;;;;;5509978;26;20295;-66
2024/04/16 11:34:03;;;;;;;82.43;79.53;;;8.10;99.90;;;;;;5526705;25;20995;-67
2024/04/16 11:36:30;;;;;;;81.37;78.57;;;7.60;99.90;;;;;;5523935;25;20583;-65
2024/04/16 11:39:01;;;;;;;109.00;105.30;;;7.50;99.90;;;;;;5525624;25;21034;-66
2024/04/16 11:41:29;;;;;;;120.67;116.67;;;7.60;99.90;;;;;;5509845;25;20528;-66
2024/04/16 11:43:57;;;;;;;112.67;108.93;;;7.60;99.90;;;;;;5498749;25;20473;-66
2024/04/16 11:46:23;;;;;;;128.90;124.70;;;7.90;99.90;;;;;;5518727;26;21116;-66
2024/04/16 11:48:51;;;;;;;148.60;143.80;;;8.60;99.90;;;;;;5488712;26;20462;-67
2024/04/16 11:51:17;;;;;;;165.87;160.50;;;8.70;99.90;;;;;;5518228;26;20512;-67
2024/04/16 11:53:46;;;;;;;176.20;170.70;;;8.80;99.90;;;;;;5512450;26;20582;-66
2024/04/16 11:56:14;;;;;;;183.50;177.80;;;8.40;99.90;;;;;;5509209;25;21020;-67
2024/04/16 11:58:43;;;;;;;246.50;239.30;;;8.60;99.90;;;;;;5488828;26;21155;-67
2024/04/16 12:01:09;;;;;;;190.13;184.33;;;8.50;99.90;;;;;;5487990;26;20478;-66
2024/04/16 12:03:37;;;;;;;178.70;173.13;;;8.20;99.90;;;;;;5525286;25;20506;-64
2024/04/16 12:06:04;;;;;;;296.40;287.87;;;8.30;99.90;;;;;;5525185;25;20948;-65
2024/04/16 12:08:32;;;;;;;264.73;256.97;;;9.00;99.90;;;;;;5524731;25;20538;-67
2024/04/16 12:10:59;;;;;;;371.03;360.03;;;8.90;99.90;;;;;;5524585;25;20512;-68
2024/04/16 12:13:30;;;;;;;415.87;403.20;;;8.90;99.90;;;;;;5509986;25;20530;-68
2024/04/16 12:15:56;;;;;;;568.87;549.93;;;9.00;99.90;;;;;;5525197;25;20578;-67
2024/04/16 12:18:24;;;;;;;702.80;676.23;;;9.10;99.90;;;;;;5524936;25;20469;-67
2024/04/16 12:20:52;;;;;;;735.20;705.93;;;9.50;99.90;;;;;;5513619;25;20276;-67